Time;durP1;ratioP1;P1;durP2;ratioP2;P2;SDS_P1;SDS_P2;PMS_P1;PMS_P2;Temp;Humidity;BMP_temperature;BMP_pressure;BME280_temperature;BME280_humidity;BME280_pressure;Samples;Min_cycle;Max_cycle;Signal;HPM_P1;HPM_P2
2020/12/14 00:01:44;;;;;;;18.10;6.95;;;;;;;;;;5013452;28;20038;-69
2020/12/14 00:04:10;;;;;;;16.55;6.45;;;;;;;;;;5013585;28;20033;-68
2020/12/14 00:06:37;;;;;;;16.00;7.22;;;;;;;;;;5013593;28;20030;-68
2020/12/14 00:09:03;;;;;;;15.70;6.53;;;;;;;;;;5012358;28;20116;-68
2020/12/14 00:11:36;;;;;;;15.00;6.90;;;;;;;;;;5017649;28;20038;-69
2020/12/14 00:14:02;;;;;;;16.13;6.70;;;;;;;;;;5015309;28;20479;-68
2020/12/14 00:16:28;;;;;;;15.38;7.25;;;;;;;;;;5012312;28;20049;-67
2020/12/14 00:18:54;;;;;;;15.32;6.60;;;;;;;;;;5013393;28;20026;-69
2020/12/14 00:21:20;;;;;;;14.93;6.43;;;;;;;;;;5012937;28;20044;-68
2020/12/14 00:23:47;;;;;;;13.77;6.40;;;;;;;;;;5013304;28;20475;-68
2020/12/14 00:26:16;;;;;;;18.10;7.85;;;;;;;;;;5013275;28;20453;-68
2020/12/14 00:28:42;;;;;;;14.77;6.90;;;;;;;;;;5013036;28;20026;-69
2020/12/14 00:31:08;;;;;;;17.45;6.18;;;;;;;;;;5013022;28;20033;-69
2020/12/14 00:33:34;;;;;;;13.02;6.45;;;;;;;;;;5012910;28;20049;-69
2020/12/14 00:36:00;;;;;;;14.90;6.00;;;;;;;;;;5012975;28;20057;-68
2020/12/14 00:38:26;;;;;;;12.85;6.00;;;;;;;;;;5011611;28;20048;-68
2020/12/14 00:40:52;;;;;;;13.52;5.90;;;;;;;;;;5013478;28;20022;-68
2020/12/14 00:43:18;;;;;;;15.10;6.47;;;;;;;;;;5013167;28;20663;-69
2020/12/14 00:45:45;;;;;;;16.77;5.68;;;;;;;;;;5013002;28;20108;-70
2020/12/14 00:48:11;;;;;;;13.55;6.70;;;;;;;;;;5012414;28;20032;-69
2020/12/14 00:50:37;;;;;;;11.93;6.03;;;;;;;;;;5012984;28;20029;-68
2020/12/14 00:53:03;;;;;;;14.70;6.22;;;;;;;;;;5012827;28;20355;-69
2020/12/14 00:55:29;;;;;;;13.57;5.40;;;;;;;;;;5012769;28;20064;-69
2020/12/14 00:57:55;;;;;;;14.32;6.07;;;;;;;;;;5012467;28;20033;-68
2020/12/14 01:00:21;;;;;;;11.90;5.47;;;;;;;;;;5012504;28;20055;-70
2020/12/14 01:02:47;;;;;;;10.63;5.53;;;;;;;;;;5012533;28;20033;-69
2020/12/14 01:05:13;;;;;;;17.02;5.82;;;;;;;;;;5012487;28;20436;-69
2020/12/14 01:07:39;;;;;;;13.23;5.43;;;;;;;;;;5012648;28;20100;-68
2020/12/14 01:10:05;;;;;;;13.43;6.05;;;;;;;;;;5011120;28;20396;-68
2020/12/14 01:12:31;;;;;;;18.08;5.60;;;;;;;;;;5012288;28;20064;-69
2020/12/14 01:14:57;;;;;;;13.88;5.75;;;;;;;;;;5012562;28;20034;-69
2020/12/14 01:17:24;;;;;;;11.93;5.35;;;;;;;;;;5012548;28;20029;-70
2020/12/14 01:19:50;;;;;;;15.32;5.78;;;;;;;;;;5012598;28;20382;-69
2020/12/14 01:22:16;;;;;;;12.77;5.68;;;;;;;;;;5012491;28;20095;-69
2020/12/14 01:24:42;;;;;;;11.10;5.70;;;;;;;;;;5012522;28;20391;-68
2020/12/14 01:27:08;;;;;;;17.00;5.53;;;;;;;;;;5012745;28;20104;-69
2020/12/14 01:29:34;;;;;;;13.90;6.38;;;;;;;;;;5013770;28;20030;-68
2020/12/14 01:32:00;;;;;;;12.85;5.40;;;;;;;;;;5012834;28;20116;-69
2020/12/14 01:34:26;;;;;;;11.95;6.22;;;;;;;;;;5012622;28;20037;-68
2020/12/14 01:36:52;;;;;;;15.50;6.88;;;;;;;;;;5012263;28;20496;-69
2020/12/14 01:39:18;;;;;;;11.45;5.22;;;;;;;;;;5012370;28;20108;-68
2020/12/14 01:41:44;;;;;;;13.90;6.82;;;;;;;;;;5012156;28;20042;-69
2020/12/14 01:44:10;;;;;;;16.17;8.10;;;;;;;;;;5012094;28;20030;-69
2020/12/14 01:46:41;;;;;;;13.20;8.07;;;;;;;;;;5012037;28;20026;-68
2020/12/14 01:49:08;;;;;;;13.60;6.45;;;;;;;;;;5012206;28;20033;-69
2020/12/14 01:51:34;;;;;;;13.20;6.70;;;;;;;;;;5012023;28;20041;-68
2020/12/14 01:54:03;;;;;;;13.40;7.20;;;;;;;;;;5011989;28;20054;-71
2020/12/14 01:56:29;;;;;;;;;;;;;;;;;;5011400;28;20034;-67
2020/12/14 01:58:55;;;;;;;17.27;7.15;;;;;;;;;;5012912;28;20277;-68
2020/12/14 02:01:21;;;;;;;14.93;7.00;;;;;;;;;;5015604;28;20508;-69
2020/12/14 02:03:47;;;;;;;17.45;8.27;;;;;;;;;;5015642;28;20033;-69
2020/12/14 02:06:13;;;;;;;12.23;7.28;;;;;;;;;;5015504;28;20026;-68
2020/12/14 02:08:39;;;;;;;14.25;7.07;;;;;;;;;;5015619;28;20033;-68
2020/12/14 02:11:05;;;;;;;15.23;6.55;;;;;;;;;;5014141;28;20022;-68
2020/12/14 02:13:32;;;;;;;15.57;6.85;;;;;;;;;;5015618;28;20022;-68
2020/12/14 02:15:58;;;;;;;11.30;6.20;;;;;;;;;;5015316;28;20112;-68
2020/12/14 02:18:25;;;;;;;10.38;5.20;;;;;;;;;;5015474;28;20034;-68
2020/12/14 02:20:51;;;;;;;11.50;5.03;;;;;;;;;;5015442;28;20037;-68
2020/12/14 02:23:17;;;;;;;15.32;6.22;;;;;;;;;;5014089;28;20109;-68
2020/12/14 02:25:43;;;;;;;11.38;5.70;;;;;;;;;;5015448;28;20022;-68
2020/12/14 02:28:09;;;;;;;12.20;6.10;;;;;;;;;;5015197;28;20053;-67
2020/12/14 02:30:35;;;;;;;15.82;7.05;;;;;;;;;;5015317;28;20022;-69
2020/12/14 02:33:01;;;;;;;14.25;6.78;;;;;;;;;;5015262;28;20029;-69
2020/12/14 02:35:27;;;;;;;14.80;7.40;;;;;;;;;;5015113;28;20092;-68
2020/12/14 02:37:53;;;;;;;15.88;7.15;;;;;;;;;;5015312;28;20052;-68
2020/12/14 02:40:19;;;;;;;17.05;8.13;;;;;;;;;;5014902;28;20034;-69
2020/12/14 02:42:45;;;;;;;14.93;6.82;;;;;;;;;;5015056;28;20110;-69
2020/12/14 02:45:11;;;;;;;14.35;7.78;;;;;;;;;;5014096;28;20053;-69
2020/12/14 02:47:37;;;;;;;14.80;7.47;;;;;;;;;;5015270;28;20026;-68
2020/12/14 02:50:04;;;;;;;18.60;10.02;;;;;;;;;;5014892;28;20030;-68
2020/12/14 02:52:30;;;;;;;17.60;10.93;;;;;;;;;;5014954;28;20025;-69
2020/12/14 02:54:56;;;;;;;20.15;10.93;;;;;;;;;;5014791;28;20030;-68
2020/12/14 02:57:22;;;;;;;16.30;8.63;;;;;;;;;;5013492;28;20026;-69
2020/12/14 02:59:48;;;;;;;14.93;8.02;;;;;;;;;;5014682;28;20033;-69
2020/12/14 03:02:14;;;;;;;15.75;7.55;;;;;;;;;;5013474;28;20033;-69
2020/12/14 03:04:41;;;;;;;15.82;8.15;;;;;;;;;;5014400;28;20033;-69
2020/12/14 03:07:07;;;;;;;17.23;8.00;;;;;;;;;;5013286;28;20025;-69
2020/12/14 03:09:33;;;;;;;16.85;8.98;;;;;;;;;;5013988;28;20030;-69
2020/12/14 03:12:02;;;;;;;20.15;9.20;;;;;;;;;;5014184;28;20056;-68
2020/12/14 03:14:28;;;;;;;17.20;8.50;;;;;;;;;;5014470;28;20037;-69
2020/12/14 03:16:56;;;;;;;21.55;9.13;;;;;;;;;;5014465;28;20025;-69
2020/12/14 03:19:23;;;;;;;13.60;8.37;;;;;;;;;;5014642;28;20471;-69
2020/12/14 03:21:49;;;;;;;17.38;8.88;;;;;;;;;;5015928;28;20048;-69
2020/12/14 03:24:15;;;;;;;21.23;8.93;;;;;;;;;;5019285;28;20029;-70
2020/12/14 03:26:41;;;;;;;20.42;9.35;;;;;;;;;;5014868;28;20097;-66
2020/12/14 03:29:08;;;;;;;21.35;9.63;;;;;;;;;;5014128;28;20049;-68
2020/12/14 03:31:34;;;;;;;21.00;8.75;;;;;;;;;;5014120;28;20025;-69
2020/12/14 03:34:01;;;;;;;20.77;10.02;;;;;;;;;;5013938;28;20530;-68
2020/12/14 03:36:28;;;;;;;21.95;9.57;;;;;;;;;;5014175;28;20034;-68
2020/12/14 03:38:55;;;;;;;25.27;9.80;;;;;;;;;;5013978;28;20045;-67
2020/12/14 03:41:21;;;;;;;22.92;9.63;;;;;;;;;;5013888;28;20044;-69
2020/12/14 03:43:48;;;;;;;22.77;10.48;;;;;;;;;;5013907;28;20092;-69
2020/12/14 03:46:17;;;;;;;18.58;10.15;;;;;;;;;;5013720;28;20032;-68
2020/12/14 03:48:44;;;;;;;20.67;9.98;;;;;;;;;;5013666;28;20022;-69
2020/12/14 03:51:11;;;;;;;23.13;10.88;;;;;;;;;;5013658;28;20449;-68
2020/12/14 03:53:37;;;;;;;20.33;9.32;;;;;;;;;;5013701;28;20032;-69
2020/12/14 03:56:03;;;;;;;19.95;9.95;;;;;;;;;;5013643;28;20026;-69
2020/12/14 03:58:29;;;;;;;18.02;10.05;;;;;;;;;;5013547;28;20037;-69
2020/12/14 04:00:55;;;;;;;21.95;9.95;;;;;;;;;;5012407;28;20034;-69
2020/12/14 04:03:23;;;;;;;18.85;8.63;;;;;;;;;;5014149;28;20061;-69
2020/12/14 04:05:49;;;;;;;21.20;9.43;;;;;;;;;;5012216;28;20080;-69
2020/12/14 04:08:16;;;;;;;19.80;9.20;;;;;;;;;;5013370;28;20022;-69
2020/12/14 04:10:42;;;;;;;17.33;8.82;;;;;;;;;;5013415;28;20477;-70
2020/12/14 04:13:08;;;;;;;16.25;8.77;;;;;;;;;;5013304;28;20038;-68
2020/12/14 04:15:34;;;;;;;16.23;9.23;;;;;;;;;;5013169;28;20018;-69
2020/12/14 04:18:00;;;;;;;21.10;9.98;;;;;;;;;;5013367;28;20497;-68
2020/12/14 04:20:26;;;;;;;15.57;9.48;;;;;;;;;;5013171;28;20100;-69
2020/12/14 04:22:52;;;;;;;15.82;9.05;;;;;;;;;;5012233;28;20033;-69
2020/12/14 04:25:19;;;;;;;19.98;10.60;;;;;;;;;;5013132;28;20025;-67
2020/12/14 04:27:45;;;;;;;17.42;9.90;;;;;;;;;;5013185;28;20082;-67
2020/12/14 04:30:12;;;;;;;18.95;9.13;;;;;;;;;;5013220;28;20029;-67
2020/12/14 04:32:38;;;;;;;18.15;8.82;;;;;;;;;;5013189;28;20041;-69
2020/12/14 04:35:04;;;;;;;20.73;10.35;;;;;;;;;;5013032;28;20025;-68
2020/12/14 04:37:30;;;;;;;22.38;10.52;;;;;;;;;;5014013;28;20080;-68
2020/12/14 04:39:56;;;;;;;19.58;9.15;;;;;;;;;;5013557;28;20057;-67
2020/12/14 04:42:24;;;;;;;19.58;9.57;;;;;;;;;;5011170;28;20038;-67
2020/12/14 04:44:53;;;;;;;23.58;9.50;;;;;;;;;;5012442;28;20113;-68
2020/12/14 04:47:20;;;;;;;19.05;9.60;;;;;;;;;;5012794;28;20058;-68
2020/12/14 04:49:48;;;;;;;18.33;10.07;;;;;;;;;;5012557;28;20429;-68
2020/12/14 04:52:15;;;;;;;19.05;9.25;;;;;;;;;;5012733;28;20026;-68
2020/12/14 04:54:42;;;;;;;19.08;9.95;;;;;;;;;;5012690;28;20478;-68
2020/12/14 04:57:08;;;;;;;24.58;10.38;;;;;;;;;;5012528;28;20076;-68
2020/12/14 04:59:35;;;;;;;19.70;9.30;;;;;;;;;;5012437;28;20042;-68
2020/12/14 05:02:08;;;;;;;22.20;9.73;;;;;;;;;;5012513;28;20038;-68
2020/12/14 05:04:37;;;;;;;20.25;9.45;;;;;;;;;;5012578;28;20029;-67
2020/12/14 05:07:04;;;;;;;24.63;10.30;;;;;;;;;;5012622;28;20363;-68
2020/12/14 05:09:30;;;;;;;21.13;9.05;;;;;;;;;;5012497;28;20109;-68
2020/12/14 05:11:56;;;;;;;19.48;9.48;;;;;;;;;;5012217;28;20518;-67
2020/12/14 05:14:27;;;;;;;19.80;10.02;;;;;;;;;;5012799;28;20100;-68
2020/12/14 05:16:53;;;;;;;17.60;9.27;;;;;;;;;;5012877;28;20030;-68
2020/12/14 05:19:26;;;;;;;18.67;9.23;;;;;;;;;;5013483;28;20026;-69
2020/12/14 05:21:56;;;;;;;21.45;10.88;;;;;;;;;;5012640;28;20037;-68
2020/12/14 05:24:23;;;;;;;20.00;12.00;;;;;;;;;;5012470;28;20022;-68
2020/12/14 05:26:49;;;;;;;22.23;11.20;;;;;;;;;;5010933;28;20025;-68
2020/12/14 05:29:18;;;;;;;20.65;11.18;;;;;;;;;;5012330;28;20049;-68
2020/12/14 05:32:05;;;;;;;20.45;10.50;;;;;;;;;;5012313;28;20026;-67
2020/12/14 05:34:32;;;;;;;19.40;9.80;;;;;;;;;;5015788;28;20467;-68
2020/12/14 05:37:02;;;;;;;21.20;9.70;;;;;;;;;;5014903;28;20037;-68
2020/12/14 05:39:29;;;;;;;20.65;10.32;;;;;;;;;;5016066;28;20394;-66
2020/12/14 05:42:06;;;;;;;19.55;9.65;;;;;;;;;;5016052;28;20033;-65
2020/12/14 05:44:32;;;;;;;19.33;9.20;;;;;;;;;;5016167;28;20463;-67
2020/12/14 05:46:58;;;;;;;18.15;8.23;;;;;;;;;;5015907;28;20072;-66
2020/12/14 05:49:25;;;;;;;16.98;9.93;;;;;;;;;;5015932;28;20038;-67
2020/12/14 05:51:59;;;;;;;20.50;10.27;;;;;;;;;;5015868;28;20037;-68
2020/12/14 05:54:33;;;;;;;18.38;10.48;;;;;;;;;;5016214;28;20053;-73
2020/12/14 05:57:02;;;;;;;17.48;10.20;;;;;;;;;;5014842;28;20026;-71
2020/12/14 05:59:29;;;;;;;22.45;11.27;;;;;;;;;;5015967;28;20026;-70
2020/12/14 06:01:55;;;;;;;20.25;11.48;;;;;;;;;;5015909;28;20077;-71
2020/12/14 06:04:21;;;;;;;;;;;;;;;;;;5014855;28;20109;-68
2020/12/14 06:06:47;;;;;;;;;;;;;;;;;;5016190;28;20044;-68
2020/12/14 06:09:13;;;;;;;;;;;;;;;;;;5015919;28;19905;-68
2020/12/14 06:11:39;;;;;;;;;;;;;;;;;;5015903;28;20062;-68
2020/12/14 06:14:05;;;;;;;;;;;;;;;;;;5016123;28;19910;-67
2020/12/14 06:16:31;;;;;;;;;;;;;;;;;;5014938;28;19906;-67
2020/12/14 06:18:57;;;;;;;;;;;;;;;;;;5016108;28;19968;-67
2020/12/14 06:21:23;;;;;;;;;;;;;;;;;;5015743;28;20382;-67
2020/12/14 06:23:49;;;;;;;;;;;;;;;;;;5016104;28;19905;-67
2020/12/14 06:26:15;;;;;;;;;;;;;;;;;;5016062;28;19960;-67
2020/12/14 06:28:41;;;;;;;;;;;;;;;;;;5015657;28;19910;-68
2020/12/14 06:31:07;;;;;;;;;;;;;;;;;;5015880;28;20254;-68
2020/12/14 06:33:33;;;;;;;;;;;;;;;;;;5017635;28;19906;-66
2020/12/14 06:35:59;;;;;;;;;;;;;;;;;;5019204;28;19906;-67
2020/12/14 06:38:25;;;;;;;;;;;;;;;;;;5014454;28;20047;-66
2020/12/14 06:40:51;;;;;;;;;;;;;;;;;;5015434;28;19952;-69
2020/12/14 06:43:17;;;;;;;;;;;;;;;;;;5013755;28;20372;-71
2020/12/14 06:45:43;;;;;;;;;;;;;;;;;;5012944;28;19910;-70
2020/12/14 06:48:09;;;;;;;;;;;;;;;;;;5013997;28;19905;-70
2020/12/14 06:50:37;;;;;;;;;;;;;;;;;;5014005;28;20342;-68
2020/12/14 06:53:03;;;;;;;;;;;;;;;;;;5015341;28;19936;-71
2020/12/14 06:55:29;;;;;;;;;;;;;;;;;;5015498;28;19905;-68
2020/12/14 06:57:54;;;;;;;;;;;;;;;;;;5015554;28;19912;-68
2020/12/14 07:00:20;;;;;;;;;;;;;;;;;;5013953;28;19909;-65
2020/12/14 07:02:46;;;;;;;;;;;;;;;;;;5015448;28;20317;-66
2020/12/14 07:05:12;;;;;;;;;;;;;;;;;;5015357;28;19942;-64
2020/12/14 07:07:38;;;;;;;;;;;;;;;;;;5015513;28;19913;-65
2020/12/14 07:10:04;;;;;;;;;;;;;;;;;;5016001;28;19905;-65
2020/12/14 07:12:30;;;;;;;;;;;;;;;;;;5015085;28;20012;-66
2020/12/14 07:14:57;;;;;;;;;;;;;;;;;;5015163;28;20007;-64
2020/12/14 07:17:23;;;;;;;;;;;;;;;;;;5014914;28;19920;-67
2020/12/14 07:19:49;;;;;;;;;;;;;;;;;;5014898;28;19906;-66
2020/12/14 07:22:15;;;;;;;;;;;;;;;;;;5013359;28;20396;-71
2020/12/14 07:24:41;;;;;;;;;;;;;;;;;;5016292;28;20373;-74
2020/12/14 07:27:07;;;;;;;;;;;;;;;;;;5015154;28;19905;-74
2020/12/14 07:29:33;;;;;;;;;;;;;;;;;;5012285;28;19988;-75
2020/12/14 07:31:58;;;;;;;;;;;;;;;;;;5014524;28;19937;-75
2020/12/14 07:34:24;;;;;;;;;;;;;;;;;;5013422;28;19960;-76
2020/12/14 07:36:50;;;;;;;;;;;;;;;;;;5014745;28;19906;-74
2020/12/14 07:39:16;;;;;;;;;;;;;;;;;;5016068;28;20444;-74
2020/12/14 07:41:42;;;;;;;;;;;;;;;;;;5014584;28;19913;-75
2020/12/14 07:44:08;;;;;;;;;;;;;;;;;;5014929;28;19905;-74
2020/12/14 07:46:35;;;;;;;;;;;;;;;;;;5014624;28;19905;-76
2020/12/14 07:49:01;;;;;;;;;;;;;;;;;;5014859;28;19913;-75
2020/12/14 07:51:27;;;;;;;;;;;;;;;;;;5017965;28;19906;-75
2020/12/14 07:53:53;;;;;;;;;;;;;;;;;;5013699;28;20369;-74
2020/12/14 07:56:20;;;;;;;;;;;;;;;;;;5014438;28;19911;-73
2020/12/14 07:58:46;;;;;;;;;;;;;;;;;;5014432;28;19909;-76
2020/12/14 08:01:11;;;;;;;;;;;;;;;;;;5014425;28;19909;-74
2020/12/14 08:03:37;;;;;;;;;;;;;;;;;;5012854;28;19945;-73
2020/12/14 08:06:03;;;;;;;;;;;;;;;;;;5013994;28;19937;-73
2020/12/14 08:08:29;;;;;;;;;;;;;;;;;;5013920;28;20361;-73
2020/12/14 08:10:55;;;;;;;;;;;;;;;;;;5014007;28;20004;-72
2020/12/14 08:13:21;;;;;;;;;;;;;;;;;;5014292;28;19996;-73
2020/12/14 08:15:47;;;;;;;;;;;;;;;;;;5012555;28;19909;-73
2020/12/14 08:18:13;;;;;;;;;;;;;;;;;;5014162;28;19905;-73
2020/12/14 08:20:42;;;;;;;;;;;;;;;;;;5013646;28;19963;-74
2020/12/14 08:23:08;;;;;;;;;;;;;;;;;;5012574;28;19909;-72
2020/12/14 08:25:34;;;;;;;;;;;;;;;;;;5013586;28;19905;-73
2020/12/14 08:28:00;;;;;;;;;;;;;;;;;;5012214;28;19909;-74
2020/12/14 08:30:26;;;;;;;;;;;;;;;;;;5012042;28;19992;-73
2020/12/14 08:32:52;;;;;;;;;;;;;;;;;;5012530;28;20380;-73
2020/12/14 08:35:18;;;;;;;;;;;;;;;;;;5013863;28;20278;-76
2020/12/14 08:37:44;;;;;;;;;;;;;;;;;;5012374;28;19901;-74
2020/12/14 08:40:10;;;;;;;;;;;;;;;;;;5013890;28;19912;-74
2020/12/14 08:42:36;;;;;;;;;;;;;;;;;;5013368;28;19919;-73
2020/12/14 08:45:02;;;;;;;;;;;;;;;;;;5013148;28;20054;-67
2020/12/14 08:47:28;;;;;;;;;;;;;;;;;;5012269;28;19952;-64
2020/12/14 08:49:54;;;;;;;;;;;;;;;;;;5013279;28;19913;-64
2020/12/14 08:52:20;;;;;;;;;;;;;;;;;;5013351;28;20435;-65
2020/12/14 08:54:46;;;;;;;;;;;;;;;;;;5011942;28;20273;-66
2020/12/14 08:57:12;;;;;;;;;;;;;;;;;;5013111;28;19909;-68
2020/12/14 08:59:38;;;;;;;;;;;;;;;;;;5013222;28;19905;-68
2020/12/14 09:02:04;;;;;;;;;;;;;;;;;;5013195;28;19919;-68
2020/12/14 09:04:30;;;;;;;;;;;;;;;;;;5017147;28;19909;-73
2020/12/14 09:06:56;;;;;;;;;;;;;;;;;;5027657;28;19941;-77
2020/12/14 09:09:22;;;;;;;;;;;;;;;;;;5020673;28;20346;-68
2020/12/14 09:11:48;;;;;;;;;;;;;;;;;;5013223;28;19913;-67
2020/12/14 09:14:14;;;;;;;;;;;;;;;;;;5012066;28;19999;-64
2020/12/14 09:16:40;;;;;;;;;;;;;;;;;;5013065;28;20492;-65
2020/12/14 09:19:06;;;;;;;;;;;;;;;;;;5014187;28;19992;-64
2020/12/14 09:21:32;;;;;;;;;;;;;;;;;;5013543;28;19928;-64
2020/12/14 09:23:58;;;;;;;;;;;;;;;;;;5012833;28;19909;-64
2020/12/14 09:26:23;;;;;;;;;;;;;;;;;;5012736;28;19909;-62
2020/12/14 09:28:49;;;;;;;;;;;;;;;;;;5012852;28;19912;-65
2020/12/14 09:31:15;;;;;;;;;;;;;;;;;;5013092;28;20310;-65
2020/12/14 09:33:41;;;;;;;;;;;;;;;;;;5012840;28;19901;-64
2020/12/14 09:36:07;;;;;;;;;;;;;;;;;;5012533;28;19906;-65
2020/12/14 09:38:33;;;;;;;;;;;;;;;;;;5011200;28;19906;-65
2020/12/14 09:40:59;;;;;;;;;;;;;;;;;;5012613;28;19909;-68
2020/12/14 09:43:25;;;;;;;;;;;;;;;;;;5012702;28;19906;-69
2020/12/14 09:45:51;;;;;;;;;;;;;;;;;;5012664;28;19902;-65
2020/12/14 09:48:17;;;;;;;;;;;;;;;;;;5012593;28;19932;-64
2020/12/14 09:50:43;;;;;;;;;;;;;;;;;;5012550;28;19916;-65
2020/12/14 09:53:09;;;;;;;;;;;;;;;;;;5012461;28;19992;-64
2020/12/14 09:55:35;;;;;;;;;;;;;;;;;;5012595;28;20357;-66
2020/12/14 09:58:01;;;;;;;;;;;;;;;;;;5012552;28;19902;-64
2020/12/14 10:00:27;;;;;;;;;;;;;;;;;;5012380;28;20368;-65
2020/12/14 10:02:53;;;;;;;;;;;;;;;;;;5012478;28;20389;-65
2020/12/14 10:05:19;;;;;;;;;;;;;;;;;;5011396;28;19941;-65
2020/12/14 10:07:46;;;;;;;;;;;;;;;;;;5012440;28;19953;-64
2020/12/14 10:10:12;;;;;;;;;;;;;;;;;;5012524;28;19901;-64
2020/12/14 10:12:41;;;;;;;;;;;;;;;;;;5012146;28;19920;-64
2020/12/14 10:15:09;;;;;;;;;;;;;;;;;;5012246;28;20336;-63
2020/12/14 10:17:35;;;;;;;;;;;;;;;;;;5011235;28;19909;-66
2020/12/14 10:20:00;;;;;;;;;;;;;;;;;;5013778;28;19906;-65
2020/12/14 10:22:26;;;;;;;;;;;;;;;;;;5017239;28;19917;-63
2020/12/14 10:24:52;;;;;;;;;;;;;;;;;;5016149;28;19905;-66
2020/12/14 10:27:18;;;;;;;;;;;;;;;;;;5015816;28;20000;-65
2020/12/14 10:29:44;;;;;;;;;;;;;;;;;;5015693;28;20000;-64
2020/12/14 10:32:10;;;;;;;;;;;;;;;;;;5015684;28;19984;-65
2020/12/14 10:34:37;;;;;;;;;;;;;;;;;;5015664;28;19913;-64
2020/12/14 10:37:03;;;;;;;;;;;;;;;;;;5015631;28;19975;-64
2020/12/14 10:39:29;;;;;;;;;;;;;;;;;;5014158;28;20342;-65
2020/12/14 10:41:54;;;;;;;;;;;;;;;;;;5015494;28;19913;-65
2020/12/14 10:44:20;;;;;;;;;;;;;;;;;;5015367;28;19906;-64
2020/12/14 10:46:46;;;;;;;;;;;;;;;;;;5014257;28;20441;-65
2020/12/14 10:49:12;;;;;;;;;;;;;;;;;;5014234;28;20358;-66
2020/12/14 10:51:38;;;;;;;;;;;;;;;;;;5015257;28;19912;-65
2020/12/14 10:54:04;;;;;;;;;;;;;;;;;;5015357;28;20350;-64
2020/12/14 10:56:30;;;;;;;;;;;;;;;;;;5015273;28;19906;-64
2020/12/14 10:58:56;;;;;;;;;;;;;;;;;;5013899;28;20266;-64
2020/12/14 11:01:22;;;;;;;;;;;;;;;;;;5015152;28;20284;-65
2020/12/14 11:03:48;;;;;;;;;;;;;;;;;;5015059;28;19909;-63
2020/12/14 11:06:14;;;;;;;;;;;;;;;;;;5015139;28;19906;-62
2020/12/14 11:08:40;;;;;;;;;;;;;;;;;;5014932;28;19910;-63
2020/12/14 11:11:06;;;;;;;;;;;;;;;;;;5014903;28;19936;-65
2020/12/14 11:13:32;;;;;;;;;;;;;;;;;;5013626;28;19948;-63
2020/12/14 11:15:59;;;;;;;;;;;;;;;;;;5014819;28;20332;-62
2020/12/14 11:18:25;;;;;;;;;;;;;;;;;;5013444;28;19905;-62
2020/12/14 11:20:51;;;;;;;;;;;;;;;;;;5013881;28;19991;-63
2020/12/14 11:23:17;;;;;;;;;;;;;;;;;;5013926;28;19910;-62
2020/12/14 11:25:43;;;;;;;;;;;;;;;;;;5012648;28;19906;-62
2020/12/14 11:28:09;;;;;;;;;;;;;;;;;;5012586;28;20338;-65
2020/12/14 11:30:35;;;;;;;;;;;;;;;;;;5013092;28;19913;-64
2020/12/14 11:33:01;;;;;;;;;;;;;;;;;;5013038;28;20266;-64
2020/12/14 11:35:27;;;;;;;;;;;;;;;;;;5014354;28;19978;-64
2020/12/14 11:37:53;;;;;;;;;;;;;;;;;;5016602;28;20302;-63
2020/12/14 11:40:19;;;;;;;;;;;;;;;;;;5018255;28;19914;-64
2020/12/14 11:42:44;;;;;;;;;;;;;;;;;;5013285;28;19910;-64
2020/12/14 11:45:10;;;;;;;;;;;;;;;;;;5014305;28;20308;-65
2020/12/14 11:47:36;;;;;;;;;;;;;;;;;;5014455;28;20302;-64
2020/12/14 11:50:02;;;;;;;;;;;;;;;;;;5012752;28;20465;-63
2020/12/14 11:52:28;;;;;;;;;;;;;;;;;;5014010;28;19905;-64
2020/12/14 11:54:54;;;;;;;;;;;;;;;;;;5014009;28;19953;-64
2020/12/14 11:57:20;;;;;;;;;;;;;;;;;;5014099;28;19905;-63
2020/12/14 11:59:46;;;;;;;;;;;;;;;;;;5014123;28;19905;-66
2020/12/14 12:02:15;;;;;;;;;;;;;;;;;;5013701;28;19918;-64
2020/12/14 12:04:41;;;;;;;;;;;;;;;;;;5013981;28;19906;-64
2020/12/14 12:07:07;;;;;;;;;;;;;;;;;;5013818;28;19906;-62
2020/12/14 12:09:32;;;;;;;;;;;;;;;;;;5013841;28;20004;-63
2020/12/14 12:11:58;;;;;;;;;;;;;;;;;;5013624;28;20361;-63
2020/12/14 12:14:24;;;;;;;;;;;;;;;;;;5013593;28;20472;-65
2020/12/14 12:16:50;;;;;;;;;;;;;;;;;;5013716;28;19902;-65
2020/12/14 12:19:17;;;;;;;;;;;;;;;;;;5012284;28;19909;-66
2020/12/14 12:21:43;;;;;;;;;;;;;;;;;;5012178;28;20366;-67
2020/12/14 12:24:09;;;;;;;;;;;;;;;;;;5012364;28;19959;-65
2020/12/14 12:26:35;;;;;;;;;;;;;;;;;;5013513;28;19936;-66
2020/12/14 12:29:01;;;;;;;;;;;;;;;;;;5013445;28;19953;-65
2020/12/14 12:31:27;;;;;;;;;;;;;;;;;;5013417;28;19909;-65
2020/12/14 12:33:53;;;;;;;;;;;;;;;;;;5013351;28;19909;-66
2020/12/14 12:36:20;;;;;;;;;;;;;;;;;;5013225;28;20003;-67
2020/12/14 12:38:46;;;;;;;;;;;;;;;;;;5014059;28;19905;-67
2020/12/14 12:41:12;;;;;;;;;;;;;;;;;;5012926;28;19924;-66
2020/12/14 12:43:38;;;;;;;;;;;;;;;;;;5011286;28;19988;-66
2020/12/14 12:46:04;;;;;;;;;;;;;;;;;;5012586;28;19971;-66
2020/12/14 12:48:30;;;;;;;;;;;;;;;;;;5012759;28;19917;-64
2020/12/14 12:50:56;;;;;;;;;;;;;;;;;;5012738;28;19909;-63
2020/12/14 12:53:22;;;;;;;;;;;;;;;;;;5013295;28;20251;-64
2020/12/14 12:55:48;;;;;;;;;;;;;;;;;;5015716;28;19906;-64
2020/12/14 12:58:14;;;;;;;;;;;;;;;;;;5016020;28;19906;-64
2020/12/14 13:00:39;;;;;;;;;;;;;;;;;;5011769;28;20354;-65
2020/12/14 13:03:05;;;;;;;;;;;;;;;;;;5012973;28;20376;-65
2020/12/14 13:05:31;;;;;;;;;;;;;;;;;;5013207;28;19905;-66
2020/12/14 13:07:57;;;;;;;;;;;;;;;;;;5012785;28;19931;-66
2020/12/14 13:10:23;;;;;;;;;;;;;;;;;;5011679;28;19959;-66
2020/12/14 13:12:49;;;;;;;;;;;;;;;;;;5012755;28;19917;-67
2020/12/14 13:15:16;;;;;;;;;;;;;;;;;;5011595;28;19925;-66
2020/12/14 13:17:42;;;;;;;;;;;;;;;;;;5012915;28;19912;-64
2020/12/14 13:20:08;;;;;;;;;;;;;;;;;;5010785;28;20003;-65
2020/12/14 13:22:34;;;;;;;;;;;;;;;;;;5011076;28;19913;-64
2020/12/14 13:25:00;;;;;;;;;;;;;;;;;;5012880;28;19905;-64
2020/12/14 13:27:25;;;;;;;;;;;;;;;;;;5012750;28;19912;-65
2020/12/14 13:29:51;;;;;;;;;;;;;;;;;;5012857;28;20285;-64
2020/12/14 13:32:17;;;;;;;;;;;;;;;;;;5012732;28;19909;-64
2020/12/14 13:34:43;;;;;;;;;;;;;;;;;;5012921;28;20292;-64
2020/12/14 13:37:09;;;;;;;;;;;;;;;;;;5011497;28;19906;-64
2020/12/14 13:39:35;;;;;;;;;;;;;;;;;;5013064;28;19905;-64
2020/12/14 13:42:01;;;;;;;;;;;;;;;;;;5012530;28;19913;-64
2020/12/14 13:44:27;;;;;;;;;;;;;;;;;;5011590;28;19913;-64
2020/12/14 13:46:53;;;;;;;;;;;;;;;;;;5011541;28;19913;-64
2020/12/14 13:49:19;;;;;;;;;;;;;;;;;;5012887;28;19928;-64
2020/12/14 13:51:45;;;;;;;;;;;;;;;;;;5012695;28;19912;-64
2020/12/14 13:54:11;;;;;;;;;;;;;;;;;;5013962;28;19909;-64
2020/12/14 13:56:37;;;;;;;;;;;;;;;;;;5015121;28;19905;-64
2020/12/14 13:59:03;;;;;;;;;;;;;;;;;;5016399;28;19905;-64
2020/12/14 14:01:28;;;;;;;;;;;;;;;;;;5016280;28;19917;-64
2020/12/14 14:03:54;;;;;;;;;;;;;;;;;;5016432;28;19905;-64
2020/12/14 14:06:20;;;;;;;;;;;;;;;;;;5016085;28;19976;-64
2020/12/14 14:08:46;;;;;;;;;;;;;;;;;;5014965;28;19913;-64
2020/12/14 14:11:12;;;;;;;;;;;;;;;;;;5016107;28;19905;-64
2020/12/14 14:13:38;;;;;;;;;;;;;;;;;;5018471;28;19906;-64
2020/12/14 14:16:04;;;;;;;;;;;;;;;;;;5016695;28;19952;-65
2020/12/14 14:18:30;;;;;;;;;;;;;;;;;;5016000;28;19952;-64
2020/12/14 14:20:56;;;;;;;;;;;;;;;;;;5015877;28;19960;-64
2020/12/14 14:23:22;;;;;;;;;;;;;;;;;;5016165;28;20397;-66
2020/12/14 14:25:48;;;;;;;;;;;;;;;;;;5016004;28;19912;-68
2020/12/14 14:28:14;;;;;;;;;;;;;;;;;;5015759;28;19987;-70
2020/12/14 14:30:40;;;;;;;;;;;;;;;;;;5016114;28;19913;-69
2020/12/14 14:33:06;;;;;;;;;;;;;;;;;;5015802;28;19905;-66
2020/12/14 14:35:33;;;;;;;;;;;;;;;;;;5015546;28;19905;-64
2020/12/14 14:38:01;;;;;;;;;;;;;;;;;;5015788;28;19933;-63
2020/12/14 14:40:27;;;;;;;;;;;;;;;;;;5015455;28;19945;-65
2020/12/14 14:42:53;;;;;;;;;;;;;;;;;;5015440;28;19948;-63
2020/12/14 14:45:19;;;;;;;;;;;;;;;;;;5015527;28;19973;-65
2020/12/14 14:47:45;;;;;;;;;;;;;;;;;;5015522;28;19909;-65
2020/12/14 14:50:11;;;;;;;;;;;;;;;;;;5015490;28;19924;-66
2020/12/14 14:52:37;;;;;;;;;;;;;;;;;;5014049;28;20350;-66
2020/12/14 14:55:03;;;;;;;;;;;;;;;;;;5015075;28;20005;-65
2020/12/14 14:57:29;;;;;;;;;;;;;;;;;;5015246;28;19929;-64
2020/12/14 14:59:55;;;;;;;;;;;;;;;;;;5015266;28;19906;-66
2020/12/14 15:02:21;;;;;;;;;;;;;;;;;;5015209;28;19913;-64
2020/12/14 15:04:47;;;;;;;;;;;;;;;;;;5015199;28;19963;-65
2020/12/14 15:07:13;;;;;;;;;;;;;;;;;;5014451;28;20194;-66
2020/12/14 15:09:39;;;;;;;;;;;;;;;;;;5015137;28;20346;-65
2020/12/14 15:12:05;;;;;;;;;;;;;;;;;;5014657;28;19949;-66
2020/12/14 15:14:31;;;;;;;;;;;;;;;;;;5013595;28;19909;-66
2020/12/14 15:16:56;;;;;;;;;;;;;;;;;;5014603;28;19910;-65
2020/12/14 15:19:22;;;;;;;;;;;;;;;;;;5013628;28;20389;-66
2020/12/14 15:21:48;;;;;;;;;;;;;;;;;;5014807;28;20037;-64
2020/12/14 15:24:14;;;;;;;;;;;;;;;;;;5014574;28;20483;-65
2020/12/14 15:26:40;;;;;;;;;;;;;;;;;;5014669;28;19909;-65
2020/12/14 15:29:06;;;;;;;;;;;;;;;;;;5015194;28;19905;-66
2020/12/14 15:31:33;;;;;;;;;;;;;;;;;;5023381;28;19912;-65
2020/12/14 15:33:59;;;;;;;;;;;;;;;;;;5014794;28;19905;-65
2020/12/14 15:36:24;;;;;;;;;;;;;;;;;;5014593;28;19916;-67
2020/12/14 15:38:50;;;;;;;;;;;;;;;;;;5014674;28;19929;-66
2020/12/14 15:41:16;;;;;;;;;;;;;;;;;;5014321;28;20433;-66